Time;durP1;ratioP1;P1;durP2;ratioP2;P2;SDS_P1;SDS_P2;PMS_P1;PMS_P2;Temp;Humidity;BMP_temperature;BMP_pressure;BME280_temperature;BME280_humidity;BME280_pressure;Samples;Min_cycle;Max_cycle;Signal;HPM_P1;HPM_P2
2022/02/18 00:02:22;;;;;;;4.80;1.50;;;;;;;4.96;68.67;97880.56;105547;1270;74643;-80
2022/02/18 00:04:48;;;;;;;5.40;1.70;;;;;;;5.08;66.52;97893.91;105772;1270;70483;-81
2022/02/18 00:07:15;;;;;;;3.10;1.10;;;;;;;5.19;66.19;97892.23;105891;1270;72834;-81
2022/02/18 00:09:41;;;;;;;3.30;1.40;;;;;;;5.23;65.97;97901.80;106322;1270;61411;-81
2022/02/18 00:12:10;;;;;;;2.90;1.20;;;;;;;5.27;64.89;97907.34;107042;1270;61278;-78
2022/02/18 00:14:42;;;;;;;4.70;1.10;;;;;;;5.32;65.20;97913.77;108556;1270;75423;-79
2022/02/18 00:17:08;;;;;;;3.80;1.80;;;;;;;5.34;65.13;97916.23;106858;1270;67461;-79
2022/02/18 00:19:35;;;;;;;3.10;1.10;;;;;;;5.35;64.91;97924.45;108389;1270;71497;-78
2022/02/18 00:22:03;;;;;;;4.00;1.40;;;;;;;5.35;65.25;97930.10;107483;1270;61290;-81
2022/02/18 00:24:30;;;;;;;4.50;1.40;;;;;;;5.32;65.10;97926.94;105203;1270;61935;-79
2022/02/18 00:26:56;;;;;;;3.30;1.30;;;;;;;5.27;65.58;97930.43;105165;1270;75188;-81
2022/02/18 00:29:23;;;;;;;6.20;1.80;;;;;;;5.22;65.75;97940.05;105222;1270;70322;-79
2022/02/18 00:31:50;;;;;;;4.90;1.60;;;;;;;5.17;66.36;97944.47;104310;1273;1003358;-80
2022/02/18 00:34:17;;;;;;;3.50;1.70;;;;;;;5.10;66.21;97951.73;105107;1270;61375;-81
2022/02/18 00:36:44;;;;;;;4.80;1.80;;;;;;;5.06;66.51;97955.14;105136;1270;61138;-79
2022/02/18 00:39:10;;;;;;;4.80;1.60;;;;;;;5.03;66.70;97955.14;105167;1270;76133;-78
2022/02/18 00:41:37;;;;;;;6.90;2.80;;;;;;;5.01;66.33;97965.50;105142;1270;69633;-79
2022/02/18 00:44:04;;;;;;;5.00;2.10;;;;;;;5.00;66.81;97969.95;105121;1270;74489;-79
2022/02/18 00:46:31;;;;;;;4.50;1.90;;;;;;;4.98;66.35;97970.90;105060;1270;61396;-80
2022/02/18 00:48:57;;;;;;;3.40;1.40;;;;;;;4.99;66.72;97979.69;105118;1270;61294;-79
2022/02/18 00:51:24;;;;;;;6.30;2.10;;;;;;;4.97;66.89;97980.16;105176;1270;61374;-79
2022/02/18 00:53:51;;;;;;;5.30;1.80;;;;;;;4.96;66.78;97982.83;105164;1270;70294;-80
2022/02/18 00:56:17;;;;;;;3.20;1.60;;;;;;;4.94;66.19;97979.46;105112;1270;74527;-79
2022/02/18 00:58:44;;;;;;;4.80;1.70;;;;;;;4.98;66.06;97980.43;105137;1270;61343;-82
2022/02/18 01:01:11;;;;;;;5.20;1.10;;;;;;;5.03;64.40;97971.17;104954;1271;61397;-79
2022/02/18 01:03:37;;;;;;;3.60;2.40;;;;;;;5.07;65.10;97987.31;105595;1270;74115;-80
2022/02/18 01:06:04;;;;;;;4.50;1.40;;;;;;;5.08;64.02;97994.30;105301;1270;68610;-79
2022/02/18 01:08:31;;;;;;;3.40;1.10;;;;;;;5.10;64.29;97998.20;105140;1270;73452;-79
2022/02/18 01:10:57;;;;;;;3.80;1.40;;;;;;;5.11;63.47;98006.77;105109;1270;61254;-80
2022/02/18 01:13:24;;;;;;;3.70;1.20;;;;;;;5.12;63.20;97999.65;105132;1270;62540;-80
2022/02/18 01:15:51;;;;;;;4.30;1.10;;;;;;;5.14;63.20;98018.59;105143;1270;61253;-77
2022/02/18 01:18:20;;;;;;;2.90;1.00;;;;;;;5.12;62.74;98018.34;105197;1270;69325;-79
2022/02/18 01:20:48;;;;;;;4.50;1.20;;;;;;;5.10;62.94;98021.64;105078;1270;73477;-80
2022/02/18 01:23:15;;;;;;;2.20;0.80;;;;;;;5.06;62.68;98022.92;105163;1270;61292;-80
2022/02/18 01:25:41;;;;;;;2.10;0.90;;;;;;;5.03;61.70;98027.48;105129;1270;61171;-79
2022/02/18 01:28:08;;;;;;;2.90;0.90;;;;;;;5.02;61.46;98044.80;105145;1270;61257;-81
2022/02/18 01:30:37;;;;;;;4.30;1.20;;;;;;;5.04;59.68;98021.63;105142;1270;69696;-80
2022/02/18 01:33:04;;;;;;;3.20;0.70;;;;;;;5.02;59.52;98032.66;105096;1270;74261;-80
2022/02/18 01:35:31;;;;;;;4.30;1.30;;;;;;;5.01;58.81;98042.59;104892;1270;61317;-79
2022/02/18 01:37:58;;;;;;;5.90;1.90;;;;;;;5.00;59.01;98051.80;105019;1270;61516;-79
2022/02/18 01:40:24;;;;;;;5.60;1.30;;;;;;;4.98;59.05;98053.31;105131;1270;75110;-81
2022/02/18 01:42:51;;;;;;;4.40;1.10;;;;;;;4.95;59.28;98058.80;105142;1270;69948;-81
2022/02/18 01:45:18;;;;;;;5.20;1.00;;;;;;;4.90;59.98;98064.88;105119;1270;73410;-81
2022/02/18 01:47:45;;;;;;;4.70;1.60;;;;;;;4.84;59.64;98069.79;105188;1270;61281;-80
2022/02/18 01:50:11;;;;;;;2.20;0.80;;;;;;;4.87;59.56;98074.96;105186;1270;61253;-78
2022/02/18 01:52:43;;;;;;;1.50;0.80;;;;;;;4.89;60.14;98072.70;105148;1270;75586;-78
2022/02/18 01:55:12;;;;;;;5.10;1.40;;;;;;;4.84;60.30;98072.46;105263;1270;70437;-78
2022/02/18 01:57:55;;;;;;;4.60;1.10;;;;;;;4.80;60.94;98071.81;105322;1270;72593;-78
2022/02/18 02:00:28;;;;;;;4.00;1.10;;;;;;;4.71;60.92;98068.81;104958;1273;61289;-80
2022/02/18 02:02:55;;;;;;;2.00;0.70;;;;;;;4.66;60.51;98062.45;105260;1270;61135;-78
2022/02/18 02:05:23;;;;;;;4.70;1.00;;;;;;;4.64;60.27;98063.22;105212;1270;76390;-78
2022/02/18 02:07:51;;;;;;;2.60;1.20;;;;;;;4.61;60.71;98059.00;105171;1270;69396;-80
2022/02/18 02:10:18;;;;;;;3.60;1.00;;;;;;;4.56;60.45;98072.14;104991;1270;73715;-78
2022/02/18 02:12:50;;;;;;;3.20;0.80;;;;;;;4.54;60.55;98079.80;105149;1270;61309;-81
2022/02/18 02:15:19;;;;;;;3.80;1.00;;;;;;;4.53;60.31;98077.23;105220;1270;61128;-79
2022/02/18 02:17:46;;;;;;;4.30;1.10;;;;;;;4.50;60.64;98081.07;105266;1270;75214;-81
2022/02/18 02:20:14;;;;;;;4.40;1.00;;;;;;;4.45;60.50;98080.48;105172;1270;69565;-79
2022/02/18 02:22:40;;;;;;;3.30;0.90;;;;;;;4.42;60.44;98073.11;105192;1270;74330;-79
2022/02/18 02:25:08;;;;;;;6.60;1.50;;;;;;;4.39;60.71;98076.45;105168;1270;61392;-79
2022/02/18 02:27:35;;;;;;;4.20;1.20;;;;;;;4.34;60.11;98074.27;105218;1270;61299;-80
2022/02/18 02:30:02;;;;;;;4.70;1.00;;;;;;;4.33;60.63;98082.39;105202;1270;75373;-80
2022/02/18 02:32:29;;;;;;;3.80;1.00;;;;;;;4.27;61.27;98086.83;105254;1270;69391;-80
2022/02/18 02:34:56;;;;;;;4.10;1.30;;;;;;;4.20;61.15;98084.39;105172;1270;73181;-80
2022/02/18 02:37:22;;;;;;;4.60;1.30;;;;;;;4.13;61.63;98090.19;105215;1270;61392;-80
2022/02/18 02:39:49;;;;;;;5.50;1.70;;;;;;;4.06;62.11;98095.53;105182;1270;61170;-79
2022/02/18 02:42:15;;;;;;;4.50;1.90;;;;;;;3.97;62.50;98098.83;105178;1270;74705;-81
2022/02/18 02:44:42;;;;;;;3.40;1.30;;;;;;;3.88;62.91;98099.14;105202;1270;70459;-79
2022/02/18 02:47:08;;;;;;;4.70;1.60;;;;;;;3.82;63.32;98101.03;105206;1270;61289;-79
2022/02/18 02:49:35;;;;;;;7.10;1.60;;;;;;;3.78;63.70;98111.48;105166;1270;61392;-79
2022/02/18 02:52:02;;;;;;;4.80;2.50;;;;;;;3.70;64.34;98112.59;105193;1270;61263;-79
2022/02/18 02:54:29;;;;;;;6.40;1.70;;;;;;;3.60;65.03;98113.96;105176;1270;73521;-79
2022/02/18 02:56:56;;;;;;;6.90;2.00;;;;;;;3.51;65.64;98121.83;105314;1270;67693;-80
2022/02/18 02:59:24;;;;;;;4.40;1.80;;;;;;;3.42;66.35;98128.27;105007;1271;73177;-79
2022/02/18 03:01:51;;;;;;;6.40;2.30;;;;;;;3.34;66.97;98132.70;105180;1270;61464;-79
2022/02/18 03:04:19;;;;;;;8.30;2.80;;;;;;;3.25;67.66;98137.05;105162;1270;61970;-79
2022/02/18 03:06:46;;;;;;;7.00;2.40;;;;;;;3.16;68.45;98132.77;105247;1270;75359;-79
2022/02/18 03:09:13;;;;;;;3.20;1.50;;;;;;;3.08;68.91;98138.23;105162;1270;70402;-78
2022/02/18 03:11:40;;;;;;;5.90;2.10;;;;;;;3.05;69.16;98146.13;105231;1270;72139;-79
2022/02/18 03:14:07;;;;;;;6.30;2.60;;;;;;;3.04;69.11;98143.72;105202;1270;61283;-80
2022/02/18 03:16:34;;;;;;;8.10;2.90;;;;;;;3.07;68.95;98143.39;105185;1270;61154;-81
2022/02/18 03:19:00;;;;;;;6.60;2.60;;;;;;;3.11;68.90;98152.84;105189;1270;75086;-78
2022/02/18 03:21:27;;;;;;;8.00;2.90;;;;;;;3.15;68.79;98155.30;105229;1270;61131;-79
2022/02/18 03:23:54;;;;;;;6.80;2.30;;;;;;;3.17;68.88;98152.90;104973;1273;61410;-79
2022/02/18 03:26:20;;;;;;;7.00;2.30;;;;;;;3.16;68.82;98158.57;105130;1270;61345;-80
2022/02/18 03:28:47;;;;;;;4.60;1.90;;;;;;;3.15;68.93;98158.80;105228;1270;61352;-80
2022/02/18 03:31:14;;;;;;;3.60;1.70;;;;;;;3.12;69.20;98164.21;105376;1270;75811;-79
2022/02/18 03:33:42;;;;;;;2.80;1.70;;;;;;;3.09;69.18;98166.80;106714;1270;67504;-79
2022/02/18 03:36:09;;;;;;;4.10;2.20;;;;;;;3.04;69.46;98171.96;104973;1274;73214;-80
2022/02/18 03:38:36;;;;;;;3.70;1.70;;;;;;;3.00;69.47;98171.27;105307;1270;61255;-80
2022/02/18 03:41:04;;;;;;;6.70;2.10;;;;;;;2.98;69.73;98174.73;105337;1270;61186;-78
2022/02/18 03:43:30;;;;;;;4.80;2.30;;;;;;;2.97;69.86;98187.94;105043;1270;75127;-78
2022/02/18 03:45:57;;;;;;;4.90;2.10;;;;;;;2.97;69.83;98187.93;105174;1270;68169;-78
2022/02/18 03:48:23;;;;;;;7.70;3.00;;;;;;;2.98;70.02;98195.44;106151;1270;61728;-78
2022/02/18 03:50:50;;;;;;;7.30;3.10;;;;;;;3.00;70.01;98196.56;105308;1270;61385;-79
2022/02/18 03:53:17;;;;;;;6.40;2.90;;;;;;;3.03;70.08;98200.59;104985;1273;61234;-79
2022/02/18 03:55:43;;;;;;;6.50;3.00;;;;;;;3.06;69.98;98198.91;105217;1270;75140;-81
2022/02/18 03:58:10;;;;;;;6.90;3.40;;;;;;;3.08;70.17;98205.27;105262;1270;61307;-79
2022/02/18 04:00:37;;;;;;;5.70;2.60;;;;;;;3.11;70.10;98211.29;105239;1270;74565;-79
2022/02/18 04:03:04;;;;;;;7.40;2.50;;;;;;;3.12;70.25;98214.75;104949;1270;61261;-79
2022/02/18 04:05:30;;;;;;;6.10;2.70;;;;;;;3.10;70.18;98211.69;105221;1270;62445;-79
2022/02/18 04:07:57;;;;;;;6.10;2.70;;;;;;;3.08;70.26;98206.52;105196;1270;76381;-80
2022/02/18 04:10:23;;;;;;;6.10;3.40;;;;;;;3.05;70.41;98204.72;105198;1270;70159;-79
2022/02/18 04:12:50;;;;;;;8.30;3.60;;;;;;;3.01;70.49;98209.11;105174;1270;73419;-81
2022/02/18 04:15:16;;;;;;;6.20;2.80;;;;;;;2.97;70.69;98215.31;104982;1271;61283;-79
2022/02/18 04:17:43;;;;;;;6.00;2.40;;;;;;;2.92;70.82;98222.38;105192;1270;61343;-79
2022/02/18 04:20:10;;;;;;;6.10;2.60;;;;;;;2.89;71.18;98227.12;104974;1273;75558;-79
2022/02/18 04:22:37;;;;;;;7.40;2.80;;;;;;;2.86;71.35;98230.39;105201;1270;69186;-79
2022/02/18 04:25:04;;;;;;;5.00;2.70;;;;;;;2.83;71.57;98222.63;105176;1270;73175;-81
2022/02/18 04:27:30;;;;;;;7.20;2.90;;;;;;;2.78;71.77;98226.19;105148;1274;61355;-79
2022/02/18 04:29:57;;;;;;;7.90;3.10;;;;;;;2.72;72.00;98232.48;105180;1270;61203;-79
2022/02/18 04:32:24;;;;;;;8.30;3.70;;;;;;;2.63;72.33;98232.39;105176;1270;61145;-78
2022/02/18 04:34:50;;;;;;;6.00;3.40;;;;;;;2.54;72.58;98239.27;105193;1270;61300;-79
2022/02/18 04:37:17;;;;;;;6.50;3.30;;;;;;;2.45;72.93;98241.42;105170;1270;74126;-79
2022/02/18 04:39:44;;;;;;;4.80;2.50;;;;;;;2.37;73.34;98244.09;105177;1270;61511;-81
2022/02/18 04:42:10;;;;;;;5.10;2.50;;;;;;;2.31;73.93;98242.46;105147;1270;61180;-79
2022/02/18 04:44:37;;;;;;;6.00;2.50;;;;;;;2.27;74.45;98249.08;105190;1270;76334;-79
2022/02/18 04:47:04;;;;;;;8.90;2.60;;;;;;;2.24;75.12;98246.08;105219;1270;70790;-80
2022/02/18 04:49:30;;;;;;;5.90;2.80;;;;;;;2.22;75.90;98246.69;105191;1270;74358;-79
2022/02/18 04:51:57;;;;;;;6.00;2.60;;;;;;;2.22;76.64;98254.95;105131;1271;61355;-79
2022/02/18 04:54:23;;;;;;;8.80;3.60;;;;;;;2.22;77.07;98256.36;105200;1270;61313;-78
2022/02/18 04:56:50;;;;;;;9.00;4.00;;;;;;;2.21;77.31;98253.77;105091;1270;61375;-80
2022/02/18 04:59:19;;;;;;;6.40;3.00;;;;;;;2.19;77.90;98250.17;105211;1270;61116;-79
2022/02/18 05:01:46;;;;;;;6.70;3.70;;;;;;;2.16;78.08;98250.98;105384;1270;74419;-78
2022/02/18 05:04:13;;;;;;;7.20;3.40;;;;;;;2.12;78.18;98251.55;105348;1270;61291;-80
2022/02/18 05:06:40;;;;;;;6.80;2.80;;;;;;;2.07;78.40;98260.34;105165;1271;61226;-81
2022/02/18 05:09:06;;;;;;;8.50;3.80;;;;;;;2.02;78.98;98257.77;104984;1270;76698;-80
2022/02/18 05:11:33;;;;;;;5.80;3.60;;;;;;;1.98;79.44;98259.31;105255;1270;61291;-80
2022/02/18 05:13:59;;;;;;;7.50;4.10;;;;;;;1.97;79.49;98256.92;105005;1271;61425;-77
2022/02/18 05:16:26;;;;;;;6.00;3.60;;;;;;;1.95;79.51;98255.94;105204;1270;61407;-78
2022/02/18 05:18:55;;;;;;;8.00;3.30;;;;;;;1.94;79.65;98258.63;105475;1270;61378;-78
2022/02/18 05:21:22;;;;;;;8.40;4.70;;;;;;;1.92;79.70;98259.23;105221;1270;74908;-80
2022/02/18 05:23:49;;;;;;;7.60;3.60;;;;;;;1.90;80.03;98257.59;105240;1270;69332;-80
2022/02/18 05:26:17;;;;;;;11.10;3.50;;;;;;;1.88;80.21;98258.57;105192;1270;73412;-78
2022/02/18 05:28:44;;;;;;;9.80;3.50;;;;;;;1.85;80.29;98262.86;105179;1270;61288;-79
2022/02/18 05:31:10;;;;;;;10.90;3.70;;;;;;;1.81;80.48;98256.22;105184;1270;61671;-82
2022/02/18 05:33:37;;;;;;;9.00;3.30;;;;;;;1.79;80.53;98255.44;105230;1270;76520;-81
2022/02/18 05:36:04;;;;;;;6.40;3.00;;;;;;;1.77;80.67;98258.84;105316;1270;70553;-78
2022/02/18 05:38:30;;;;;;;4.60;3.00;;;;;;;1.77;80.89;98262.90;105146;1274;74531;-78
2022/02/18 05:40:57;;;;;;;9.20;3.60;;;;;;;1.76;80.89;98262.90;105379;1270;61377;-80
2022/02/18 05:43:23;;;;;;;8.30;3.10;;;;;;;1.75;80.98;98260.67;105459;1270;61350;-79
2022/02/18 05:45:50;;;;;;;6.00;3.60;;;;;;;1.74;81.17;98260.02;105573;1271;61276;-79
2022/02/18 05:48:16;;;;;;;9.40;4.50;;;;;;;1.74;81.18;98265.46;105590;1270;61426;-81
2022/02/18 05:50:43;;;;;;;10.90;3.80;;;;;;;1.74;81.31;98276.84;105775;1270;61251;-79
2022/02/18 05:53:09;;;;;;;10.50;3.90;;;;;;;1.75;81.48;98283.63;105822;1274;61369;-80
2022/02/18 05:55:36;;;;;;;9.70;3.50;;;;;;;1.79;81.41;98291.70;106078;1270;61269;-79
2022/02/18 05:58:02;;;;;;;6.90;3.10;;;;;;;1.82;81.54;98298.38;107586;1270;60421;-79
2022/02/18 06:00:29;;;;;;;11.60;4.50;;;;;;;1.89;81.91;98302.48;108609;1270;59726;-79
2022/02/18 06:02:55;;;;;;;11.20;3.80;;;;;;;1.95;81.77;98305.87;108440;1270;70273;-79
2022/02/18 06:05:22;;;;;;;9.40;3.60;;;;;;;2.06;81.59;98308.21;108606;1270;59038;-79
2022/02/18 06:07:48;;;;;;;7.60;3.70;;;;;;;2.14;81.57;98307.16;106746;1270;61145;-80
2022/02/18 06:10:15;;;;;;;8.30;3.70;;;;;;;2.24;81.07;98307.45;105325;1270;61981;-81
2022/02/18 06:12:42;;;;;;;10.40;3.90;;;;;;;2.31;80.86;98316.23;105017;1272;68973;-79
2022/02/18 06:15:09;;;;;;;7.70;4.10;;;;;;;2.38;80.60;98316.26;105282;1270;73237;-80
2022/02/18 06:17:39;;;;;;;9.60;3.50;;;;;;;2.47;80.46;98316.75;105254;1270;61268;-80
2022/02/18 06:20:08;;;;;;;7.50;4.20;;;;;;;2.56;80.19;98320.53;105224;1270;61754;-79
2022/02/18 06:22:38;;;;;;;11.20;3.60;;;;;;;2.62;80.01;98326.20;105275;1270;76117;-79
2022/02/18 06:25:07;;;;;;;7.90;3.50;;;;;;;2.69;79.72;98329.10;105040;1273;70143;-80
2022/02/18 06:27:33;;;;;;;11.20;4.50;;;;;;;2.74;79.47;98335.15;105285;1270;73398;-79
2022/02/18 06:30:00;;;;;;;8.50;3.80;;;;;;;2.76;79.39;98335.39;105177;1271;61256;-79
2022/02/18 06:32:27;;;;;;;8.50;4.10;;;;;;;2.76;79.24;98339.63;105241;1270;61846;-80
2022/02/18 06:34:54;;;;;;;11.80;4.20;;;;;;;2.74;79.18;98346.01;105022;1271;76207;-80
2022/02/18 06:37:21;;;;;;;9.20;4.00;;;;;;;2.71;79.24;98347.91;105192;1270;68312;-81
2022/02/18 06:39:48;;;;;;;11.60;4.70;;;;;;;2.69;79.20;98348.20;105214;1271;73882;-80
2022/02/18 06:42:14;;;;;;;6.50;3.70;;;;;;;2.70;79.18;98351.85;105190;1271;61262;-79
2022/02/18 06:44:41;;;;;;;8.90;4.30;;;;;;;2.73;79.16;98356.61;105222;1271;61256;-81
2022/02/18 06:47:07;;;;;;;7.80;3.70;;;;;;;2.76;79.07;98351.88;105226;1271;75999;-80
2022/02/18 06:49:34;;;;;;;8.50;3.20;;;;;;;2.81;78.95;98354.99;105271;1271;61313;-82
2022/02/18 06:52:01;;;;;;;8.80;3.40;;;;;;;2.85;78.91;98356.23;105269;1271;74365;-79
2022/02/18 06:54:30;;;;;;;6.10;4.00;;;;;;;2.90;78.78;98352.86;105228;1270;61320;-79
2022/02/18 06:57:00;;;;;;;12.70;4.40;;;;;;;2.94;78.76;98356.34;105342;1271;61989;-79
2022/02/18 06:59:28;;;;;;;9.40;3.60;;;;;;;2.97;78.67;98361.46;105283;1271;75535;-80
2022/02/18 07:01:55;;;;;;;11.80;3.60;;;;;;;3.01;78.45;98360.94;105322;1271;68818;-79
2022/02/18 07:04:23;;;;;;;9.00;4.00;;;;;;;3.05;78.27;98363.71;105079;1274;73428;-80
2022/02/18 07:06:50;;;;;;;11.20;4.40;;;;;;;3.12;78.20;98358.33;105233;1271;61348;-79
2022/02/18 07:09:17;;;;;;;10.60;3.70;;;;;;;3.19;77.84;98364.48;105312;1271;61356;-79
2022/02/18 07:11:44;;;;;;;11.30;4.30;;;;;;;3.27;77.51;98359.01;105375;1270;73578;-79
2022/02/18 07:14:11;;;;;;;9.70;4.00;;;;;;;3.35;77.21;98361.98;105247;1270;70319;-78
2022/02/18 07:16:44;;;;;;;10.00;4.90;;;;;;;3.41;76.96;98359.92;105216;1271;73276;-82
2022/02/18 07:19:12;;;;;;;12.00;4.30;;;;;;;3.47;76.68;98357.34;105208;1271;61181;-78
2022/02/18 07:21:39;;;;;;;9.10;4.30;;;;;;;3.52;76.68;98361.12;105095;1271;61489;-79
2022/02/18 07:24:07;;;;;;;8.40;3.80;;;;;;;3.58;76.28;98367.73;105200;1271;75196;-79
2022/02/18 07:26:34;;;;;;;8.90;4.00;;;;;;;3.64;76.25;98371.27;105313;1271;70405;-78
2022/02/18 07:29:01;;;;;;;7.90;3.90;;;;;;;3.70;76.25;98374.84;105143;1271;73489;-79
2022/02/18 07:31:28;;;;;;;7.80;3.90;;;;;;;3.77;75.84;98377.65;105187;1271;61281;-79
2022/02/18 07:33:55;;;;;;;13.80;4.40;;;;;;;3.86;75.47;98377.21;105217;1271;61320;-78
2022/02/18 07:36:22;;;;;;;9.00;4.00;;;;;;;3.93;75.62;98375.63;105173;1271;76514;-79
2022/02/18 07:38:49;;;;;;;14.50;4.60;;;;;;;4.00;75.49;98373.71;105146;1271;68705;-79
2022/02/18 07:41:16;;;;;;;8.10;3.80;;;;;;;4.05;75.39;98369.61;105211;1271;74678;-78
2022/02/18 07:43:43;;;;;;;8.30;4.30;;;;;;;4.09;75.07;98369.36;105192;1271;61211;-80
2022/02/18 07:46:09;;;;;;;7.80;3.70;;;;;;;4.15;75.07;98368.02;105025;1274;61258;-78
2022/02/18 07:48:36;;;;;;;8.80;3.80;;;;;;;4.21;74.87;98366.66;105202;1270;61179;-79
2022/02/18 07:51:06;;;;;;;9.50;3.70;;;;;;;4.27;74.55;98371.98;105148;1271;70294;-78
2022/02/18 07:53:34;;;;;;;10.80;3.50;;;;;;;4.33;73.90;98368.52;105192;1270;74485;-79
2022/02/18 07:56:01;;;;;;;11.20;4.40;;;;;;;4.41;73.62;98365.12;105185;1271;61321;-79
2022/02/18 07:58:27;;;;;;;13.20;3.70;;;;;;;4.46;73.39;98367.30;105103;1271;61229;-78
2022/02/18 08:00:54;;;;;;;12.10;3.60;;;;;;;4.53;73.23;98379.95;105126;1271;74225;-80
2022/02/18 08:03:21;;;;;;;8.50;3.50;;;;;;;4.59;73.25;98384.54;105174;1271;69219;-81
2022/02/18 08:05:47;;;;;;;10.30;3.80;;;;;;;4.67;72.76;98382.78;105196;1271;72072;-79
2022/02/18 08:08:15;;;;;;;7.80;3.30;;;;;;;4.73;72.81;98378.23;105112;1271;61525;-80
2022/02/18 08:10:41;;;;;;;8.30;3.30;;;;;;;4.79;72.33;98380.02;105206;1271;61125;-82
2022/02/18 08:13:08;;;;;;;9.70;3.40;;;;;;;4.84;72.27;98377.45;105079;1271;75211;-80
2022/02/18 08:15:35;;;;;;;7.10;3.00;;;;;;;4.90;72.20;98378.36;105129;1271;70376;-81
2022/02/18 08:18:01;;;;;;;6.80;3.30;;;;;;;4.96;71.62;98382.97;105134;1271;74073;-80
2022/02/18 08:20:28;;;;;;;11.90;3.80;;;;;;;5.03;71.48;98389.46;105173;1271;61182;-79
2022/02/18 08:22:54;;;;;;;7.00;3.30;;;;;;;5.12;71.67;98387.05;104982;1271;61304;-80
2022/02/18 08:25:21;;;;;;;6.90;3.90;;;;;;;5.20;71.40;98387.63;105190;1272;61422;-80
2022/02/18 08:27:48;;;;;;;6.60;3.40;;;;;;;5.28;70.97;98387.55;105203;1271;70218;-81
2022/02/18 08:30:14;;;;;;;7.60;3.50;;;;;;;5.35;70.98;98389.80;104944;1271;72884;-81
2022/02/18 08:32:42;;;;;;;7.10;3.40;;;;;;;5.42;70.54;98393.11;105056;1271;61320;-80
2022/02/18 08:35:10;;;;;;;8.90;3.80;;;;;;;5.48;70.30;98390.14;105194;1271;60688;-80
2022/02/18 08:37:37;;;;;;;6.90;3.10;;;;;;;5.53;69.75;98389.70;105213;1271;75465;-80
2022/02/18 08:40:05;;;;;;;6.70;3.20;;;;;;;5.58;69.87;98395.59;105196;1271;68153;-80
2022/02/18 08:42:33;;;;;;;8.60;3.30;;;;;;;5.65;69.29;98388.34;104963;1272;73436;-79
2022/02/18 08:44:59;;;;;;;9.30;3.10;;;;;;;5.70;68.63;98387.64;105201;1270;61407;-81
2022/02/18 08:47:26;;;;;;;9.40;3.60;;;;;;;5.78;68.12;98390.25;105233;1271;61286;-80
2022/02/18 08:49:52;;;;;;;5.50;3.00;;;;;;;5.85;68.68;98384.88;105190;1271;75994;-79
2022/02/18 08:52:19;;;;;;;7.20;2.60;;;;;;;5.92;67.99;98384.67;105168;1270;61321;-80
2022/02/18 08:54:45;;;;;;;7.80;3.10;;;;;;;5.99;67.85;98389.22;105159;1271;73213;-78
2022/02/18 08:57:12;;;;;;;7.20;2.50;;;;;;;6.06;67.84;98388.65;105314;1270;61235;-80
2022/02/18 08:59:39;;;;;;;6.80;2.70;;;;;;;6.12;67.41;98396.73;105568;1270;61262;-78
2022/02/18 09:02:07;;;;;;;7.30;3.30;;;;;;;6.19;67.18;98397.75;104945;1270;74730;-80
2022/02/18 09:04:33;;;;;;;5.40;2.50;;;;;;;6.27;66.61;98393.23;105306;1270;70457;-81
2022/02/18 09:07:00;;;;;;;6.70;2.80;;;;;;;6.37;66.18;98393.52;105185;1270;73414;-81
2022/02/18 09:09:27;;;;;;;8.70;3.00;;;;;;;6.49;65.74;98395.46;105181;1270;61370;-81
2022/02/18 09:11:53;;;;;;;5.80;2.70;;;;;;;6.64;64.94;98391.00;105159;1270;61287;-81
2022/02/18 09:14:20;;;;;;;8.20;2.90;;;;;;;6.75;64.55;98386.27;105161;1270;75526;-79
2022/02/18 09:16:46;;;;;;;6.80;3.00;;;;;;;6.83;64.31;98390.20;105189;1270;68548;-79
2022/02/18 09:19:13;;;;;;;6.90;2.80;;;;;;;6.98;64.10;98386.63;105187;1270;72713;-79
2022/02/18 09:21:40;;;;;;;7.00;2.50;;;;;;;7.26;63.68;98388.06;105894;1270;61283;-80
2022/02/18 09:24:06;;;;;;;4.50;2.10;;;;;;;7.54;62.96;98387.17;105133;1270;61319;-80
2022/02/18 09:26:33;;;;;;;5.50;2.30;;;;;;;7.67;62.33;98391.13;105156;1270;75325;-81
2022/02/18 09:29:00;;;;;;;6.50;2.60;;;;;;;7.77;60.96;98394.92;105154;1270;69183;-80
2022/02/18 09:31:27;;;;;;;6.80;2.80;;;;;;;7.95;61.57;98394.55;105029;1271;73274;-80
2022/02/18 09:33:54;;;;;;;6.00;2.50;;;;;;;8.12;60.48;98390.42;105152;1271;61324;-82
2022/02/18 09:36:21;;;;;;;8.70;2.60;;;;;;;8.18;59.75;98395.17;105123;1271;61317;-82
2022/02/18 09:38:48;;;;;;;6.10;2.40;;;;;;;8.22;59.86;98393.48;105187;1270;75531;-78
2022/02/18 09:41:15;;;;;;;3.90;2.40;;;;;;;8.20;58.71;98395.96;105233;1270;70155;-77
2022/02/18 09:43:41;;;;;;;7.60;2.80;;;;;;;8.18;58.69;98395.36;105080;1270;74522;-77
2022/02/18 09:46:08;;;;;;;7.10;3.00;;;;;;;8.27;58.77;98395.45;105217;1270;61368;-77
2022/02/18 09:48:38;;;;;;;7.30;2.80;;;;;;;8.31;58.48;98398.02;105195;1270;61256;-77
2022/02/18 09:51:05;;;;;;;6.90;3.60;;;;;;;8.41;58.67;98399.66;105171;1270;76468;-77
2022/02/18 09:53:34;;;;;;;7.90;4.00;;;;;;;8.61;59.06;98399.91;105214;1270;69577;-77
2022/02/18 09:56:02;;;;;;;4.20;2.40;;;;;;;8.81;58.56;98397.30;105185;1270;72334;-73
2022/02/18 09:58:29;;;;;;;6.40;2.60;;;;;;;8.83;56.76;98404.61;105053;1270;61410;-77
2022/02/18 10:00:56;;;;;;;4.90;2.90;;;;;;;8.82;57.60;98406.10;105203;1271;61213;-76
2022/02/18 10:03:22;;;;;;;9.00;3.60;;;;;;;8.85;57.80;98403.94;105193;1270;75216;-78
2022/02/18 10:05:49;;;;;;;8.10;4.10;;;;;;;8.92;58.13;98398.10;105250;1270;69413;-78
2022/02/18 10:08:18;;;;;;;5.20;2.70;;;;;;;9.08;58.26;98400.23;105218;1270;74420;-77
2022/02/18 10:11:03;;;;;;;5.60;2.30;;;;;;;9.13;57.16;98400.92;105247;1270;61460;-77
2022/02/18 10:13:45;;;;;;;5.10;2.70;;;;;;;9.20;56.94;98399.88;105252;1270;61604;-77
2022/02/18 10:16:13;;;;;;;5.20;2.10;;;;;;;9.27;56.61;98393.88;105260;1270;75051;-77
2022/02/18 10:18:54;;;;;;;6.60;2.40;;;;;;;9.27;56.16;98398.83;105428;1270;69979;-77
2022/02/18 10:21:25;;;;;;;8.80;2.90;;;;;;;9.21;56.60;98395.56;105136;1270;73364;-77
2022/02/18 10:24:04;;;;;;;;;;;;;;;9.24;57.12;98391.09;105263;1270;61392;-77
2022/02/18 10:26:39;;;;;;;5.10;2.10;;;;;;;9.20;57.03;98387.27;105161;1270;61229;-75
2022/02/18 10:29:07;;;;;;;6.60;2.70;;;;;;;9.23;57.54;98379.48;105211;1270;76551;-78
2022/02/18 10:31:34;;;;;;;5.70;2.50;;;;;;;9.35;57.20;98373.96;105263;1270;68688;-75
2022/02/18 10:34:05;;;;;;;7.10;3.10;;;;;;;9.57;57.51;98378.10;105212;1270;74122;-77
2022/02/18 10:36:50;;;;;;;6.90;2.30;;;;;;;9.81;56.95;98369.45;105227;1270;61391;-79
2022/02/18 10:39:31;;;;;;;4.10;2.20;;;;;;;9.90;56.61;98368.61;105144;1268;61838;-77
2022/02/18 10:42:00;;;;;;;6.50;2.80;;;;;;;9.91;56.30;98368.73;105145;1270;75557;-77
2022/02/18 10:44:32;;;;;;;8.00;2.80;;;;;;;10.00;56.79;98359.17;105231;1270;68582;-77
2022/02/18 10:47:05;;;;;;;6.40;2.70;;;;;;;10.14;56.62;98357.77;105003;1271;73471;-74
2022/02/18 10:49:36;;;;;;;7.40;2.10;;;;;;;10.28;54.97;98354.61;104972;1270;61361;-77
2022/02/18 10:52:17;;;;;;;8.00;2.40;;;;;;;10.39;55.36;98346.95;105333;1270;61361;-77
2022/02/18 10:54:45;;;;;;;4.80;2.70;;;;;;;10.52;54.57;98354.48;105287;1270;75281;-76
2022/02/18 10:57:12;;;;;;;7.40;2.30;;;;;;;10.57;54.63;98345.61;105264;1270;69418;-77
2022/02/18 10:59:39;;;;;;;4.20;1.90;;;;;;;10.61;53.36;98351.71;105203;1270;73197;-77
2022/02/18 11:02:06;;;;;;;7.50;2.20;;;;;;;10.50;52.96;98352.55;105227;1270;61377;-75
2022/02/18 11:04:32;;;;;;;4.60;1.80;;;;;;;10.47;53.52;98349.21;105203;1270;61350;-77
2022/02/18 11:07:13;;;;;;;5.40;2.10;;;;;;;10.48;53.45;98346.71;105256;1270;76154;-79
2022/02/18 11:09:46;;;;;;;5.90;2.00;;;;;;;10.46;53.68;98346.13;105211;1270;69341;-80
2022/02/18 11:12:13;;;;;;;4.40;1.60;;;;;;;10.37;53.85;98343.21;105172;1270;73072;-77
2022/02/18 11:14:45;;;;;;;3.70;1.60;;;;;;;10.20;53.10;98341.82;105224;1270;61216;-80
2022/02/18 11:17:14;;;;;;;5.70;1.60;;;;;;;10.03;54.07;98341.52;105256;1270;61364;-74
2022/02/18 11:19:44;;;;;;;7.20;2.40;;;;;;;9.97;54.55;98337.17;105238;1270;75063;-76
2022/02/18 11:22:11;;;;;;;;;;;;;;;9.96;54.59;98334.62;104989;1272;68609;-78
2022/02/18 11:24:38;;;;;;;6.50;2.00;;;;;;;9.93;54.07;98337.52;105174;1270;74163;-78
2022/02/18 11:27:05;;;;;;;6.50;2.20;;;;;;;9.85;54.49;98340.36;105221;1270;61263;-77
2022/02/18 11:29:35;;;;;;;7.20;2.50;;;;;;;9.86;54.60;98331.59;105247;1270;61243;-77
2022/02/18 11:32:09;;;;;;;4.90;1.70;;;;;;;9.87;54.28;98321.21;105242;1270;76492;-77
2022/02/18 11:34:42;;;;;;;7.70;2.70;;;;;;;9.83;53.51;98315.46;105213;1270;69157;-77